Time;durP1;ratioP1;P1;durP2;ratioP2;P2;SDS_P1;SDS_P2;PMS_P1;PMS_P2;Temp;Humidity;BMP_temperature;BMP_pressure;BME280_temperature;BME280_humidity;BME280_pressure;Samples;Min_cycle;Max_cycle;Signal;HPM_P1;HPM_P2
2022/06/02 00:02:30;;;;;;;2.27;2.07;;;17.10;68.70;;;;;;5114424;28;20484;-57
2022/06/02 00:05:07;;;;;;;2.10;1.90;;;17.00;68.50;;;;;;5114063;28;20434;-57
2022/06/02 00:07:43;;;;;;;3.10;2.00;;;17.10;68.80;;;;;;5114103;28;20431;-58
2022/06/02 00:10:21;;;;;;;3.20;2.10;;;17.00;69.00;;;;;;5114014;28;20462;-58
2022/06/02 00:12:55;;;;;;;2.07;1.87;;;17.00;69.10;;;;;;5114324;28;20431;-58
2022/06/02 00:15:26;;;;;;;2.30;1.83;;;17.00;69.60;;;;;;5114322;28;20426;-58
2022/06/02 00:18:02;;;;;;;2.43;2.20;;;17.00;69.40;;;;;;5113805;28;20820;-58
2022/06/02 00:20:36;;;;;;;4.73;1.97;;;17.10;69.20;;;;;;5113843;28;20519;-57
2022/06/02 00:23:31;;;;;;;2.10;1.60;;;17.00;69.30;;;;;;5114220;28;20432;-57
2022/06/02 00:26:03;;;;;;;2.23;2.03;;;16.90;69.50;;;;;;5114060;28;20446;-57
2022/06/02 00:28:38;;;;;;;2.13;1.70;;;16.90;69.90;;;;;;5114076;28;20470;-57
2022/06/02 00:31:13;;;;;;;2.00;1.80;;;16.90;69.40;;;;;;5113789;28;20961;-57
2022/06/02 00:34:01;;;;;;;2.30;2.10;;;16.90;69.80;;;;;;5113805;28;20762;-57
2022/06/02 00:36:34;;;;;;;3.13;1.90;;;16.80;70.20;;;;;;5114099;28;20437;-58
2022/06/02 00:39:03;;;;;;;1.97;1.70;;;16.80;69.90;;;;;;5114148;28;20482;-58
2022/06/02 00:41:39;;;;;;;2.00;1.80;;;16.80;70.40;;;;;;5113986;28;20473;-57
2022/06/02 00:44:15;;;;;;;2.10;1.80;;;16.80;70.40;;;;;;5117567;28;20526;-57
2022/06/02 00:46:55;;;;;;;3.17;2.50;;;16.80;70.60;;;;;;5118090;28;20442;-58
2022/06/02 00:49:34;;;;;;;1.93;1.70;;;16.70;70.40;;;;;;5117516;28;20484;-58
2022/06/02 00:52:27;;;;;;;2.70;2.10;;;16.70;70.60;;;;;;5117701;28;20430;-58
2022/06/02 00:58:06;;;;;;;2.47;1.80;;;16.60;71.20;;;;;;5117873;28;20457;-57
2022/06/02 01:00:37;;;;;;;2.17;1.83;;;16.60;71.20;;;;;;5117874;28;20439;-57
2022/06/02 01:03:10;;;;;;;2.60;1.80;;;16.60;71.60;;;;;;5117821;28;20594;-57
2022/06/02 01:05:56;;;;;;;2.40;1.70;;;16.50;71.80;;;;;;5117420;28;20896;-57
2022/06/02 01:08:38;;;;;;;2.33;2.13;;;16.50;72.00;;;;;;5117329;28;20909;-57
2022/06/02 01:11:15;;;;;;;3.00;2.60;;;16.60;72.60;;;;;;5117616;28;20423;-57
2022/06/02 01:13:59;;;;;;;2.13;1.83;;;16.60;72.00;;;;;;5117381;28;20916;-58
2022/06/02 01:16:35;;;;;;;3.63;2.07;;;16.60;72.30;;;;;;5117257;28;20430;-58
2022/06/02 01:19:34;;;;;;;2.33;1.97;;;16.50;72.20;;;;;;5116934;28;20486;-58
2022/06/02 01:22:19;;;;;;;2.53;1.87;;;16.50;72.30;;;;;;5117931;28;20764;-57
2022/06/02 01:25:24;;;;;;;2.67;2.30;;;16.50;72.70;;;;;;5117374;28;20431;-57
2022/06/02 01:28:30;;;;;;;3.50;1.80;;;16.40;73.00;;;;;;5117030;28;20959;-57
2022/06/02 01:31:04;;;;;;;3.80;2.30;;;16.50;72.80;;;;;;5117599;28;20408;-57
2022/06/02 01:33:39;;;;;;;6.00;2.07;;;16.40;73.20;;;;;;5117215;28;20773;-57
2022/06/02 01:36:15;;;;;;;1.90;1.70;;;16.40;73.10;;;;;;5116899;28;20441;-58
2022/06/02 01:38:53;;;;;;;2.20;2.00;;;16.30;72.80;;;;;;5117492;28;20482;-58
2022/06/02 01:41:32;;;;;;;4.63;2.20;;;16.30;73.10;;;;;;5116744;28;20966;-57
2022/06/02 01:44:05;;;;;;;2.73;2.00;;;16.30;73.30;;;;;;5117085;28;20454;-58
2022/06/02 01:46:42;;;;;;;3.73;1.97;;;16.30;73.40;;;;;;5116971;28;20430;-58
2022/06/02 01:49:24;;;;;;;2.80;1.80;;;16.20;73.50;;;;;;5116416;28;20474;-58
2022/06/02 01:52:06;;;;;;;4.80;3.40;;;16.10;73.70;;;;;;5116864;28;20528;-58
2022/06/02 01:54:43;;;;;;;3.80;2.20;;;16.10;75.00;;;;;;5115563;28;20502;-58
2022/06/02 01:57:31;;;;;;;3.30;2.30;;;16.00;73.90;;;;;;5116620;28;20443;-57
2022/06/02 02:00:05;;;;;;;3.37;3.00;;;16.00;74.60;;;;;;5116353;28;20463;-57
2022/06/02 02:02:46;;;;;;;2.20;2.00;;;16.10;75.00;;;;;;5116614;28;20437;-57
2022/06/02 02:05:28;;;;;;;2.77;2.10;;;16.10;74.90;;;;;;5116601;28;20475;-58
2022/06/02 02:08:19;;;;;;;3.77;2.07;;;16.00;75.00;;;;;;5117053;28;20419;-57
2022/06/02 02:10:58;;;;;;;2.60;2.00;;;16.00;75.50;;;;;;5072467;28;20478;-58
2022/06/02 02:13:36;;;;;;;3.93;2.07;;;15.90;76.20;;;;;;5116144;28;20453;-57
2022/06/02 02:16:20;;;;;;;2.23;1.80;;;15.80;76.10;;;;;;5116096;28;20966;-57
2022/06/02 02:18:58;;;;;;;2.00;1.90;;;15.80;76.10;;;;;;5116169;28;20494;-57
2022/06/02 02:21:31;;;;;;;2.03;1.93;;;15.90;76.50;;;;;;5115967;28;20427;-57
2022/06/02 02:24:09;;;;;;;2.43;2.10;;;15.90;77.20;;;;;;5115962;28;20427;-57
2022/06/02 02:26:40;;;;;;;3.77;2.30;;;15.90;76.50;;;;;;5116022;28;20453;-57
2022/06/02 02:29:21;;;;;;;2.50;2.30;;;15.80;76.20;;;;;;5116406;28;20870;-57
2022/06/02 02:31:57;;;;;;;2.77;2.27;;;15.80;76.90;;;;;;5115849;28;20808;-57
2022/06/02 02:34:37;;;;;;;1.93;1.80;;;15.80;76.70;;;;;;5115732;28;20437;-58
2022/06/02 02:37:11;;;;;;;2.20;2.00;;;15.90;76.90;;;;;;5116008;28;20423;-58
2022/06/02 02:39:47;;;;;;;4.70;2.13;;;15.90;77.30;;;;;;5115783;28;20478;-57
2022/06/02 02:42:20;;;;;;;2.30;2.10;;;15.90;77.10;;;;;;5115613;28;20837;-57
2022/06/02 02:44:57;;;;;;;2.97;2.17;;;15.80;77.60;;;;;;5115979;28;20458;-58
2022/06/02 02:47:31;;;;;;;2.07;1.90;;;15.70;78.10;;;;;;5116332;28;20500;-58
2022/06/02 02:50:06;;;;;;;2.50;2.30;;;15.70;78.20;;;;;;5115332;28;20952;-58
2022/06/02 02:52:44;;;;;;;2.30;2.10;;;15.80;78.20;;;;;;5115672;28;20462;-58
2022/06/02 02:55:19;;;;;;;5.50;2.10;;;15.80;78.70;;;;;;5115507;28;20430;-58
2022/06/02 02:57:53;;;;;;;2.10;1.90;;;15.70;78.10;;;;;;5115516;28;20442;-58
2022/06/02 03:00:23;;;;;;;3.40;2.00;;;15.70;79.40;;;;;;5115421;28;20457;-58
2022/06/02 03:03:02;;;;;;;2.13;1.93;;;15.80;78.60;;;;;;5115432;28;20443;-57
2022/06/02 03:05:42;;;;;;;2.57;2.00;;;15.70;78.20;;;;;;5115981;28;20427;-57
2022/06/02 03:08:18;;;;;;;2.40;2.20;;;15.70;77.70;;;;;;5115296;28;20434;-57
2022/06/02 03:10:48;;;;;;;4.87;2.33;;;15.70;78.10;;;;;;5115323;28;20422;-57
2022/06/02 03:13:30;;;;;;;2.20;2.00;;;15.70;78.50;;;;;;5115154;28;20455;-58
2022/06/02 03:16:02;;;;;;;2.30;2.10;;;15.60;78.50;;;;;;5114860;28;20446;-58
2022/06/02 03:18:52;;;;;;;3.13;2.37;;;15.50;79.00;;;;;;5114704;28;20850;-58
2022/06/02 03:21:33;;;;;;;2.10;2.00;;;15.60;79.40;;;;;;5114754;28;20514;-58
2022/06/02 03:24:29;;;;;;;3.40;2.40;;;15.60;79.90;;;;;;5115005;28;20423;-57
2022/06/02 03:27:10;;;;;;;3.10;2.10;;;15.60;79.90;;;;;;5114631;28;20968;-57
2022/06/02 03:29:49;;;;;;;2.87;2.27;;;15.70;81.30;;;;;;5114568;28;20458;-58
2022/06/02 03:32:27;;;;;;;2.73;2.37;;;15.70;81.30;;;;;;5115517;28;20426;-58
2022/06/02 03:35:02;;;;;;;2.27;2.07;;;15.70;79.90;;;;;;5114862;28;20472;-58
2022/06/02 03:37:50;;;;;;;4.23;2.20;;;15.70;79.10;;;;;;5114488;28;20439;-58
2022/06/02 03:40:29;;;;;;;2.03;1.83;;;15.70;79.70;;;;;;5114645;28;20490;-57
2022/06/02 03:43:06;;;;;;;2.60;2.30;;;15.60;79.30;;;;;;5114407;28;20437;-58
2022/06/02 03:45:53;;;;;;;2.60;2.40;;;15.60;80.40;;;;;;5114700;28;20510;-58
2022/06/02 03:48:47;;;;;;;3.20;2.40;;;15.70;82.90;;;;;;5114204;28;20471;-58
2022/06/02 03:51:22;;;;;;;2.50;2.30;;;15.70;82.90;;;;;;5114594;28;20470;-58
2022/06/02 03:54:19;;;;;;;2.40;2.20;;;15.60;82.60;;;;;;5114541;28;20426;-58
2022/06/02 03:57:03;;;;;;;3.23;2.17;;;15.50;81.40;;;;;;5111479;28;20512;-58
2022/06/02 03:59:46;;;;;;;2.40;2.20;;;15.40;82.00;;;;;;5114364;28;20509;-58
2022/06/02 04:02:17;;;;;;;2.40;2.10;;;15.50;82.20;;;;;;5114137;28;20902;-58
2022/06/02 04:04:52;;;;;;;3.03;1.83;;;15.40;84.50;;;;;;5114142;28;20900;-58
2022/06/02 04:07:34;;;;;;;2.33;2.13;;;15.50;85.60;;;;;;5114081;28;20491;-58
2022/06/02 04:10:14;;;;;;;3.00;2.27;;;15.50;83.00;;;;;;5114324;28;20455;-58
2022/06/02 04:16:17;;;;;;;7.20;2.53;;;15.50;84.80;;;;;;5114400;28;20402;-57
2022/06/02 04:18:56;;;;;;;4.20;2.40;;;15.50;83.90;;;;;;5113146;28;20540;-57
2022/06/02 04:21:37;;;;;;;3.53;2.90;;;15.40;83.60;;;;;;5114165;28;20427;-58
2022/06/02 04:24:25;;;;;;;2.27;2.03;;;15.30;83.80;;;;;;5114193;28;20431;-57
2022/06/02 04:27:12;;;;;;;4.00;2.40;;;15.30;85.50;;;;;;5113780;28;20776;-57
2022/06/02 04:29:59;;;;;;;2.73;2.50;;;15.30;84.40;;;;;;5114365;28;20850;-57
2022/06/02 04:32:39;;;;;;;2.60;1.93;;;15.40;85.60;;;;;;5114057;28;20415;-58
2022/06/02 04:35:16;;;;;;;3.17;2.50;;;15.50;86.60;;;;;;5113709;28;20427;-58
2022/06/02 04:37:49;;;;;;;4.80;2.30;;;15.50;86.60;;;;;;5114095;28;20423;-57
2022/06/02 04:40:29;;;;;;;2.50;2.30;;;15.50;87.80;;;;;;5113929;28;20482;-58
2022/06/02 04:43:04;;;;;;;2.53;2.10;;;15.50;86.60;;;;;;5113884;28;20445;-57
2022/06/02 04:45:39;;;;;;;2.90;2.57;;;15.50;87.40;;;;;;5114578;28;20430;-57
2022/06/02 04:48:15;;;;;;;3.60;2.20;;;15.50;81.20;;;;;;5113489;28;20662;-58
2022/06/02 04:50:47;;;;;;;2.87;2.50;;;15.40;83.90;;;;;;5113683;28;20433;-58
2022/06/02 04:53:23;;;;;;;2.73;2.13;;;15.60;85.90;;;;;;5113949;28;20423;-57
2022/06/02 04:56:03;;;;;;;4.30;2.33;;;15.70;86.10;;;;;;5113469;28;20947;-58
2022/06/02 04:58:40;;;;;;;5.30;2.50;;;15.70;84.70;;;;;;5113392;28;20960;-59
2022/06/02 05:01:16;;;;;;;3.10;2.80;;;15.70;83.40;;;;;;5113898;28;20518;-57
2022/06/02 05:03:52;;;;;;;2.50;2.30;;;15.60;83.10;;;;;;5113686;28;20442;-57
2022/06/02 05:06:27;;;;;;;2.70;2.50;;;15.70;82.10;;;;;;5113821;28;20505;-58
2022/06/02 05:09:07;;;;;;;3.30;2.40;;;15.70;82.20;;;;;;5113344;28;20458;-57
2022/06/02 05:11:46;;;;;;;2.73;2.53;;;15.80;83.70;;;;;;5113760;28;20835;-57
2022/06/02 05:14:33;;;;;;;4.10;2.77;;;15.80;83.40;;;;;;5113520;28;20450;-57
2022/06/02 05:17:18;;;;;;;2.80;2.40;;;15.90;83.20;;;;;;5113394;28;20493;-58
2022/06/02 05:20:14;;;;;;;2.53;2.33;;;15.90;82.90;;;;;;5113525;28;20482;-57
2022/06/02 05:23:30;;;;;;;2.40;2.20;;;15.80;82.50;;;;;;5113987;28;20427;-57
2022/06/02 05:26:39;;;;;;;2.73;2.53;;;16.00;86.10;;;;;;5030678;28;20454;-58
2022/06/02 05:29:40;;;;;;;2.60;2.40;;;16.10;84.50;;;;;;5052400;27;20553;-57
2022/06/02 05:32:25;;;;;;;3.40;2.70;;;16.20;81.50;;;;;;5116709;28;20423;-57
2022/06/02 05:35:27;;;;;;;3.67;2.63;;;16.20;82.20;;;;;;5116541;28;20466;-57
2022/06/02 05:38:13;;;;;;;2.80;2.60;;;16.40;82.70;;;;;;5117779;28;20422;-57
2022/06/02 05:40:43;;;;;;;4.00;3.00;;;16.50;82.00;;;;;;5116909;28;20979;-57
2022/06/02 05:43:28;;;;;;;3.10;2.53;;;16.50;82.80;;;;;;5116996;28;20453;-58
2022/06/02 05:46:09;;;;;;;3.93;2.70;;;16.40;81.50;;;;;;5116656;28;20466;-57
2022/06/02 05:48:56;;;;;;;2.80;2.60;;;16.50;80.40;;;;;;5116659;28;20992;-58
2022/06/02 05:51:30;;;;;;;6.30;2.63;;;16.50;80.50;;;;;;5117462;27;20433;-58
2022/06/02 05:54:11;;;;;;;4.23;2.70;;;16.60;81.50;;;;;;5116182;28;20442;-58
2022/06/02 05:56:48;;;;;;;2.50;2.30;;;16.60;80.60;;;;;;5116109;28;20453;-58
2022/06/02 06:00:03;;;;;;;5.47;3.10;;;16.70;78.30;;;;;;5116131;28;20994;-58
2022/06/02 06:02:59;;;;;;;3.07;2.70;;;16.80;77.30;;;;;;5076359;27;20463;-57
2022/06/02 06:05:30;;;;;;;6.27;2.70;;;16.80;77.70;;;;;;5116340;28;20431;-57
2022/06/02 06:08:18;;;;;;;4.30;3.90;;;16.70;79.70;;;;;;5116436;28;20423;-58
2022/06/02 06:11:02;;;;;;;4.30;3.00;;;16.50;76.70;;;;;;5116425;28;20427;-57
2022/06/02 06:13:45;;;;;;;2.80;2.37;;;16.60;77.60;;;;;;5116218;28;20446;-58
2022/06/02 06:16:20;;;;;;;3.17;2.43;;;16.60;75.80;;;;;;5116010;28;20460;-57
2022/06/02 06:19:04;;;;;;;4.37;2.73;;;16.80;78.80;;;;;;5115646;28;20557;-58
2022/06/02 06:21:49;;;;;;;2.97;2.77;;;16.80;75.40;;;;;;5116091;28;20756;-58
2022/06/02 06:24:42;;;;;;;4.13;2.63;;;17.10;75.50;;;;;;5115752;28;20543;-57
2022/06/02 06:27:16;;;;;;;2.60;2.40;;;16.90;76.30;;;;;;5112500;28;20534;-58
2022/06/02 06:29:59;;;;;;;3.00;2.70;;;16.80;77.20;;;;;;5115542;28;20470;-57
2022/06/02 06:32:37;;;;;;;4.83;2.77;;;16.90;78.30;;;;;;5115371;28;20935;-62
2022/06/02 06:35:22;;;;;;;2.73;2.30;;;16.90;77.10;;;;;;5115492;28;20422;-58
2022/06/02 06:38:19;;;;;;;5.07;2.97;;;17.00;77.40;;;;;;5115740;28;20518;-57
2022/06/02 06:41:18;;;;;;;2.40;2.10;;;17.10;77.90;;;;;;5100859;28;20828;-57
2022/06/02 06:44:10;;;;;;;4.40;3.10;;;17.10;78.60;;;;;;5115595;28;20788;-58
2022/06/02 06:46:46;;;;;;;4.03;2.83;;;17.00;79.10;;;;;;5115448;28;20570;-57
2022/06/02 06:49:21;;;;;;;2.83;2.63;;;17.10;76.40;;;;;;5114916;28;20565;-58
2022/06/02 06:52:17;;;;;;;5.30;2.80;;;17.00;77.40;;;;;;5115491;28;20430;-58
2022/06/02 06:54:54;;;;;;;3.60;2.60;;;17.00;77.20;;;;;;5112691;28;20459;-58
2022/06/02 06:57:29;;;;;;;3.17;2.40;;;16.90;77.50;;;;;;5114721;28;20473;-58
2022/06/02 07:00:05;;;;;;;3.43;2.73;;;16.80;78.20;;;;;;5114615;28;20566;-58
2022/06/02 07:02:45;;;;;;;2.77;2.57;;;16.90;79.00;;;;;;5115153;28;20522;-58
2022/06/02 07:05:21;;;;;;;3.43;3.13;;;17.10;79.10;;;;;;5115644;28;20461;-57
2022/06/02 07:07:58;;;;;;;3.93;2.90;;;17.90;77.60;;;;;;5114824;28;20456;-57
2022/06/02 07:10:34;;;;;;;4.40;2.43;;;18.40;75.40;;;;;;5114463;28;20797;-59
2022/06/02 07:13:18;;;;;;;6.53;2.90;;;18.60;75.60;;;;;;5114595;28;20526;-58
2022/06/02 07:15:52;;;;;;;3.23;2.67;;;19.40;74.40;;;;;;5114888;28;20474;-58
2022/06/02 07:18:46;;;;;;;4.33;2.43;;;20.00;73.60;;;;;;5114763;28;20435;-58
2022/06/02 07:21:27;;;;;;;5.87;2.73;;;20.70;70.60;;;;;;5111262;28;20479;-57
2022/06/02 07:24:15;;;;;;;3.50;2.73;;;20.30;71.90;;;;;;5114905;28;20431;-58
2022/06/02 07:26:54;;;;;;;4.70;2.30;;;20.80;70.10;;;;;;5114610;28;20446;-58
2022/06/02 07:29:42;;;;;;;3.07;2.67;;;21.40;67.80;;;;;;5114178;28;20557;-58
2022/06/02 07:32:48;;;;;;;2.93;2.40;;;21.40;67.70;;;;;;5114421;28;20431;-58
2022/06/02 07:35:51;;;;;;;3.93;2.10;;;22.20;67.10;;;;;;5015378;28;20964;-59
2022/06/02 07:38:42;;;;;;;6.13;2.70;;;22.60;65.60;;;;;;5114170;28;20425;-59
2022/06/02 07:41:31;;;;;;;3.30;2.60;;;22.90;66.80;;;;;;5114144;28;20473;-59
2022/06/02 07:44:18;;;;;;;3.03;2.83;;;23.00;66.30;;;;;;5113767;28;20458;-59
2022/06/02 07:47:15;;;;;;;9.00;2.57;;;22.60;64.50;;;;;;5114504;28;20458;-59
2022/06/02 07:49:55;;;;;;;2.60;2.40;;;22.80;67.10;;;;;;5113936;28;20470;-59
2022/06/02 07:52:28;;;;;;;2.97;2.67;;;22.50;65.80;;;;;;5113231;28;20419;-57
2022/06/02 07:55:03;;;;;;;3.03;2.73;;;22.80;64.40;;;;;;5114178;28;20434;-57
2022/06/02 07:57:48;;;;;;;3.07;2.70;;;23.30;64.30;;;;;;5114197;28;20423;-57
2022/06/02 08:00:21;;;;;;;6.13;3.17;;;22.90;61.40;;;;;;5113945;28;20953;-58
2022/06/02 08:03:35;;;;;;;3.47;2.77;;;23.30;63.00;;;;;;5114101;28;20433;-59
2022/06/02 08:06:14;;;;;;;2.97;2.50;;;23.90;63.20;;;;;;5113748;28;20537;-58
2022/06/02 08:08:54;;;;;;;3.33;2.47;;;24.50;62.90;;;;;;5113905;28;20462;-58
2022/06/02 08:11:29;;;;;;;2.93;2.73;;;24.50;60.90;;;;;;5114043;28;20453;-58
2022/06/02 08:14:08;;;;;;;7.47;2.67;;;25.00;61.80;;;;;;5113967;28;20465;-58
2022/06/02 08:16:50;;;;;;;5.10;2.40;;;25.10;61.50;;;;;;5113869;28;20427;-59
2022/06/02 08:19:31;;;;;;;4.00;2.50;;;25.50;59.80;;;;;;5113858;28;20465;-57
2022/06/02 08:22:01;;;;;;;2.50;2.27;;;25.70;61.90;;;;;;5113552;28;20794;-57
2022/06/02 08:24:46;;;;;;;3.70;2.67;;;26.00;60.50;;;;;;5113324;28;20451;-58
2022/06/02 08:27:38;;;;;;;5.67;3.20;;;26.10;58.50;;;;;;5113423;28;20920;-58
2022/06/02 08:30:12;;;;;;;4.53;2.87;;;25.70;58.40;;;;;;5113302;28;21034;-58
2022/06/02 08:32:53;;;;;;;2.77;2.57;;;25.90;58.70;;;;;;5113550;28;20470;-58
2022/06/02 08:35:24;;;;;;;3.20;2.23;;;26.30;57.60;;;;;;5113902;28;20508;-59
2022/06/02 08:38:15;;;;;;;2.57;2.03;;;26.30;58.40;;;;;;5113723;28;20458;-59
2022/06/02 08:41:28;;;;;;;5.30;2.30;;;26.30;57.50;;;;;;5113248;28;20516;-59
2022/06/02 08:44:23;;;;;;;3.57;2.30;;;26.30;57.10;;;;;;5113378;28;20442;-59
2022/06/02 08:47:15;;;;;;;2.40;2.20;;;26.30;55.70;;;;;;5113500;28;20482;-59
2022/06/02 08:50:09;;;;;;;2.20;2.00;;;26.00;57.10;;;;;;5073201;28;20510;-59
2022/06/02 08:53:12;;;;;;;2.50;2.30;;;26.40;57.10;;;;;;5072980;28;20441;-58
2022/06/02 08:55:59;;;;;;;2.80;2.20;;;26.50;56.60;;;;;;5072662;28;20800;-59
2022/06/02 08:59:08;;;;;;;4.53;2.20;;;26.20;56.00;;;;;;5072667;28;20429;-59
2022/06/02 09:01:53;;;;;;;4.20;2.93;;;26.80;56.30;;;;;;5072385;28;20499;-59
2022/06/02 09:05:08;;;;;;;3.00;2.70;;;27.20;56.10;;;;;;5075003;28;20460;-59
2022/06/02 09:08:00;;;;;;;2.80;2.27;;;27.10;55.10;;;;;;5077124;28;20443;-59
2022/06/02 09:11:11;;;;;;;2.67;2.47;;;27.00;54.80;;;;;;5076045;28;20497;-59
2022/06/02 09:14:12;;;;;;;2.63;2.43;;;26.90;55.60;;;;;;5033807;28;20454;-59
2022/06/02 09:17:06;;;;;;;2.23;2.03;;;27.00;55.40;;;;;;5074966;28;20961;-58
2022/06/02 09:19:44;;;;;;;3.33;2.63;;;26.80;55.20;;;;;;5075556;28;21040;-59
2022/06/02 09:22:34;;;;;;;3.80;2.90;;;27.60;54.60;;;;;;5076653;28;20455;-59
2022/06/02 09:25:17;;;;;;;7.53;2.30;;;27.40;56.00;;;;;;5075906;28;20429;-58
2022/06/02 09:28:19;;;;;;;7.73;2.73;;;27.80;56.00;;;;;;5075857;28;20432;-58
2022/06/02 09:31:00;;;;;;;4.10;2.40;;;27.30;54.30;;;;;;5076528;28;20431;-59
2022/06/02 09:33:53;;;;;;;2.97;2.20;;;26.40;55.90;;;;;;5075967;28;20507;-59
2022/06/02 09:36:47;;;;;;;2.93;2.63;;;27.50;55.60;;;;;;5076163;28;20424;-58
2022/06/02 09:39:33;;;;;;;6.90;2.73;;;28.20;55.30;;;;;;5075688;28;20468;-59
2022/06/02 09:42:21;;;;;;;3.60;2.30;;;28.10;54.00;;;;;;5076036;28;20543;-59
2022/06/02 09:45:06;;;;;;;2.50;2.30;;;28.30;54.50;;;;;;5076233;28;20501;-58
2022/06/02 09:47:58;;;;;;;2.50;2.30;;;28.30;53.40;;;;;;5081554;28;20484;-59
2022/06/02 09:50:59;;;;;;;2.70;2.53;;;27.60;54.00;;;;;;5116539;27;20469;-58
2022/06/02 09:53:58;;;;;;;4.97;2.17;;;27.70;54.20;;;;;;5116259;27;20431;-59
2022/06/02 09:56:44;;;;;;;2.97;2.20;;;27.30;53.70;;;;;;5100211;28;20457;-59
2022/06/02 09:59:23;;;;;;;3.73;2.67;;;27.50;53.30;;;;;;5116482;28;20561;-59
2022/06/02 10:02:16;;;;;;;4.53;2.23;;;26.70;53.80;;;;;;5116403;28;20549;-59
2022/06/02 10:05:06;;;;;;;3.77;1.93;;;26.70;53.50;;;;;;5105675;28;20450;-59
2022/06/02 10:07:57;;;;;;;2.83;2.23;;;26.70;53.30;;;;;;5116130;28;20518;-58
2022/06/02 10:10:39;;;;;;;2.43;2.17;;;27.00;55.00;;;;;;5115778;28;20568;-58
2022/06/02 10:13:40;;;;;;;3.80;2.57;;;28.00;54.00;;;;;;5116763;28;20427;-59
2022/06/02 10:16:43;;;;;;;2.30;2.10;;;28.50;53.10;;;;;;5114811;28;20450;-58
2022/06/02 10:19:34;;;;;;;2.10;2.00;;;28.80;50.60;;;;;;5091778;28;20489;-58
2022/06/02 10:22:09;;;;;;;4.43;2.17;;;27.60;51.80;;;;;;5115772;28;20470;-59
2022/06/02 10:25:12;;;;;;;2.47;1.90;;;27.60;53.30;;;;;;5115936;28;20438;-58
2022/06/02 10:28:18;;;;;;;3.40;2.43;;;27.60;53.40;;;;;;5089838;28;20446;-58
2022/06/02 10:31:24;;;;;;;3.17;2.53;;;27.40;53.10;;;;;;5115521;28;20426;-58
2022/06/02 10:34:28;;;;;;;4.20;2.23;;;27.90;54.40;;;;;;5115534;28;20419;-59
2022/06/02 10:37:25;;;;;;;2.20;1.93;;;28.50;54.20;;;;;;5115865;28;20422;-60
2022/06/02 10:40:19;;;;;;;3.70;2.00;;;29.40;52.20;;;;;;5115716;28;20462;-59
2022/06/02 10:43:09;;;;;;;2.60;2.40;;;29.50;52.10;;;;;;5041799;28;20472;-59
2022/06/02 10:46:00;;;;;;;4.47;2.63;;;29.50;52.10;;;;;;5112735;28;20446;-59
2022/06/02 10:49:02;;;;;;;2.37;2.17;;;29.10;51.40;;;;;;5111763;28;20475;-59
2022/06/02 10:52:03;;;;;;;3.70;2.60;;;28.80;51.50;;;;;;5115063;28;20803;-58
2022/06/02 10:54:59;;;;;;;3.80;2.20;;;27.10;52.50;;;;;;5070703;28;20799;-59
2022/06/02 10:57:50;;;;;;;4.40;2.23;;;28.40;52.30;;;;;;5095573;28;20530;-58
2022/06/02 11:00:30;;;;;;;3.10;2.73;;;28.80;51.90;;;;;;5094787;28;20485;-58
2022/06/02 11:03:45;;;;;;;2.23;2.03;;;28.60;53.60;;;;;;5094749;28;20434;-58
2022/06/02 11:06:53;;;;;;;3.33;2.40;;;28.70;51.20;;;;;;5050084;28;20516;-59
2022/06/02 11:10:07;;;;;;;2.03;1.83;;;28.50;52.40;;;;;;5094154;28;21016;-59
2022/06/02 11:13:05;;;;;;;2.70;2.50;;;29.20;51.70;;;;;;5087188;28;20918;-59
2022/06/02 11:16:27;;;;;;;1.70;1.60;;;29.10;51.10;;;;;;5093953;28;20516;-59
2022/06/02 11:19:38;;;;;;;2.50;2.30;;;29.00;51.40;;;;;;5094572;28;20466;-60
2022/06/02 11:22:42;;;;;;;2.43;2.00;;;28.20;51.40;;;;;;5094667;28;20489;-60
2022/06/02 11:25:47;;;;;;;2.23;2.00;;;29.10;50.90;;;;;;5095886;28;21013;-59
2022/06/02 11:29:09;;;;;;;2.17;1.90;;;29.00;52.40;;;;;;5114748;28;20509;-58
2022/06/02 11:32:01;;;;;;;3.10;1.90;;;28.10;52.20;;;;;;5114754;28;20438;-58
2022/06/02 11:35:06;;;;;;;2.80;2.07;;;29.10;51.60;;;;;;5111892;28;20808;-59
2022/06/02 11:38:01;;;;;;;3.53;2.37;;;29.30;52.10;;;;;;5114205;28;20434;-59
2022/06/02 11:40:39;;;;;;;2.20;2.00;;;29.10;51.80;;;;;;5106317;28;20486;-59
2022/06/02 11:43:15;;;;;;;3.87;2.27;;;28.80;51.40;;;;;;5114126;28;20431;-59
2022/06/02 11:46:15;;;;;;;3.53;2.30;;;28.80;52.90;;;;;;5114107;28;20469;-59
2022/06/02 11:49:10;;;;;;;2.90;2.10;;;28.30;51.80;;;;;;5114023;28;20488;-59
2022/06/02 11:52:01;;;;;;;2.37;2.00;;;27.90;52.90;;;;;;5114244;28;20429;-59
2022/06/02 11:54:48;;;;;;;2.67;2.00;;;28.30;52.00;;;;;;5097233;28;20458;-59
2022/06/02 11:57:34;;;;;;;3.00;2.33;;;28.20;52.20;;;;;;5113676;28;20530;-58
2022/06/02 12:00:37;;;;;;;4.10;2.50;;;27.70;52.00;;;;;;5113886;28;20569;-59
2022/06/02 12:03:19;;;;;;;4.07;2.57;;;27.70;51.10;;;;;;5106774;28;20940;-59
2022/06/02 12:06:22;;;;;;;4.40;2.30;;;27.80;52.20;;;;;;5114187;28;20414;-59
2022/06/02 12:09:21;;;;;;;2.53;1.90;;;27.90;51.50;;;;;;5114292;28;20540;-60
2022/06/02 12:12:01;;;;;;;4.13;2.27;;;27.30;52.90;;;;;;5113952;28;20423;-59
2022/06/02 12:14:50;;;;;;;8.20;2.03;;;27.10;53.20;;;;;;5113985;28;20434;-57
2022/06/02 12:17:35;;;;;;;4.57;2.40;;;27.50;53.40;;;;;;5114177;28;20446;-59
2022/06/02 12:20:39;;;;;;;2.10;1.90;;;27.70;52.80;;;;;;5113960;28;20447;-59
2022/06/02 12:23:44;;;;;;;3.47;2.40;;;27.70;53.00;;;;;;5114138;28;20449;-59
2022/06/02 12:26:22;;;;;;;4.50;2.13;;;27.50;53.10;;;;;;5030982;28;20478;-59
2022/06/02 12:29:13;;;;;;;3.30;2.00;;;27.70;52.40;;;;;;5105281;28;20551;-59
2022/06/02 12:32:01;;;;;;;2.90;2.23;;;27.30;53.50;;;;;;5114078;28;20423;-59
2022/06/02 12:34:59;;;;;;;4.43;1.90;;;27.40;53.30;;;;;;5113748;28;20789;-60
2022/06/02 12:38:07;;;;;;;2.53;2.33;;;27.30;53.40;;;;;;5113905;28;20434;-59
2022/06/02 12:40:43;;;;;;;2.60;2.13;;;27.30;52.70;;;;;;5107343;28;20485;-59
2022/06/02 12:43:41;;;;;;;2.47;2.27;;;27.40;54.50;;;;;;5117920;28;20469;-59
2022/06/02 12:46:35;;;;;;;4.47;2.20;;;27.30;53.80;;;;;;5117558;28;20450;-58
2022/06/02 12:49:36;;;;;;;2.37;2.17;;;27.20;53.10;;;;;;5117381;28;20482;-58
2022/06/02 12:52:33;;;;;;;2.40;2.20;;;27.20;53.40;;;;;;5118611;28;20502;-58
2022/06/02 12:55:37;;;;;;;5.90;2.27;;;26.60;53.40;;;;;;5118191;28;20529;-59
2022/06/02 12:58:40;;;;;;;3.40;3.10;;;26.80;53.50;;;;;;5117525;28;20518;-59
2022/06/02 13:01:20;;;;;;;2.33;2.13;;;26.80;54.50;;;;;;5117207;28;20466;-58
2022/06/02 13:04:38;;;;;;;3.37;2.63;;;26.30;54.40;;;;;;5117289;28;20533;-58
2022/06/02 13:07:58;;;;;;;2.63;2.30;;;26.50;55.00;;;;;;5112773;28;21025;-59
2022/06/02 13:10:42;;;;;;;2.03;1.80;;;27.30;54.80;;;;;;5117428;28;20545;-58
2022/06/02 13:13:44;;;;;;;2.50;2.30;;;27.40;53.70;;;;;;5117263;28;20435;-58
2022/06/02 13:17:08;;;;;;;5.30;2.13;;;27.70;55.30;;;;;;5114386;28;20450;-58
2022/06/02 13:19:50;;;;;;;2.80;2.13;;;27.50;54.20;;;;;;5068388;28;20476;-59
2022/06/02 13:22:48;;;;;;;4.90;2.70;;;27.40;54.20;;;;;;5116907;28;20473;-60
2022/06/02 13:25:47;;;;;;;2.37;2.00;;;26.90;54.80;;;;;;5116478;28;20446;-58
2022/06/02 13:28:51;;;;;;;4.00;2.50;;;27.00;54.20;;;;;;5116641;28;20927;-58
2022/06/02 13:31:56;;;;;;;2.30;2.03;;;26.90;54.60;;;;;;5112470;28;20529;-58
2022/06/02 13:34:54;;;;;;;3.53;2.70;;;26.50;54.10;;;;;;5116839;28;20916;-58
2022/06/02 13:37:46;;;;;;;7.33;2.13;;;26.30;54.80;;;;;;5116368;28;20509;-60
2022/06/02 13:40:30;;;;;;;2.53;2.30;;;26.20;54.50;;;;;;5116329;28;20458;-58
2022/06/02 13:43:29;;;;;;;4.60;2.13;;;26.10;54.70;;;;;;5115964;28;20545;-58
2022/06/02 13:46:24;;;;;;;3.20;2.53;;;26.20;55.80;;;;;;5113290;28;20459;-58
2022/06/02 13:49:52;;;;;;;4.33;2.50;;;26.10;55.20;;;;;;5115731;28;20478;-58
2022/06/02 13:53:06;;;;;;;4.10;3.70;;;26.10;55.30;;;;;;5033308;28;20793;-59
2022/06/02 13:59:09;;;;;;;1.93;1.83;;;26.00;55.30;;;;;;5116268;28;20453;-59
2022/06/02 14:01:55;;;;;;;2.83;2.13;;;25.90;56.20;;;;;;5089391;28;21041;-59
2022/06/02 14:04:51;;;;;;;4.87;2.50;;;25.70;55.80;;;;;;5116145;28;20773;-58
2022/06/02 14:07:51;;;;;;;2.90;2.60;;;25.80;55.60;;;;;;5115877;28;20466;-59
2022/06/02 14:10:32;;;;;;;3.10;2.57;;;25.60;55.60;;;;;;5115820;28;20966;-58
2022/06/02 14:13:36;;;;;;;2.23;2.07;;;25.30;55.60;;;;;;5115761;28;20419;-58
2022/06/02 14:16:10;;;;;;;3.40;2.57;;;25.20;56.20;;;;;;5115756;28;20439;-58
2022/06/02 14:19:09;;;;;;;2.77;2.53;;;24.90;56.50;;;;;;5115963;28;20541;-58
2022/06/02 14:21:46;;;;;;;5.47;2.17;;;25.00;56.20;;;;;;5095015;28;20478;-58
2022/06/02 14:24:20;;;;;;;2.50;2.30;;;25.20;56.70;;;;;;5115642;28;20427;-58
2022/06/02 14:27:02;;;;;;;3.80;2.33;;;25.10;55.80;;;;;;5115479;28;20433;-58
2022/06/02 14:29:44;;;;;;;2.63;2.40;;;25.20;56.10;;;;;;5115357;28;20439;-58
2022/06/02 14:32:22;;;;;;;2.83;2.50;;;25.00;56.30;;;;;;5115770;28;20415;-58
2022/06/02 14:35:10;;;;;;;4.00;2.50;;;24.90;56.70;;;;;;5115459;28;20970;-59
2022/06/02 14:37:42;;;;;;;2.53;2.33;;;24.90;57.40;;;;;;5098669;28;20526;-58
2022/06/02 14:40:14;;;;;;;4.37;3.00;;;24.90;56.60;;;;;;5115424;28;20458;-58